createdAt,value
2022-11-24T00:01:18.516Z,97850.97
2022-11-24T00:03:47.453Z,97853.00
2022-11-24T00:06:16.994Z,97854.25
2022-11-24T00:08:46.892Z,97844.28
2022-11-24T00:11:17.221Z,97849.00
2022-11-24T00:13:45.983Z,97851.84
2022-11-24T00:16:16.911Z,97847.25
2022-11-24T00:18:47.208Z,97859.13
2022-11-24T00:21:16.696Z,97851.69
2022-11-24T00:23:45.565Z,97860.44
2022-11-24T00:26:15.527Z,97862.78
2022-11-24T00:28:44.798Z,97857.28
2022-11-24T00:31:19.457Z,97861.84
2022-11-24T00:33:49.046Z,97852.69
2022-11-24T00:36:18.080Z,97859.97
2022-11-24T00:38:46.384Z,97862.00
2022-11-24T00:41:15.196Z,97857.44
2022-11-24T00:43:43.215Z,97860.91
2022-11-24T00:46:11.403Z,97863.59
2022-11-24T00:48:41.102Z,97853.59
2022-11-24T00:51:11.159Z,97867.84
2022-11-24T00:53:39.452Z,97865.63
2022-11-24T00:56:08.017Z,97854.56
2022-11-24T00:58:36.546Z,97859.13
2022-11-24T01:01:06.319Z,97871.13
2022-11-24T01:03:34.945Z,97869.69
2022-11-24T01:06:09.575Z,97873.97
2022-11-24T01:08:38.596Z,97866.34
2022-11-24T01:11:11.634Z,97867.59
2022-11-24T01:13:39.952Z,97864.91
2022-11-24T01:16:14.220Z,97863.66
2022-11-24T01:18:42.377Z,97864.78
2022-11-24T01:21:11.919Z,97867.00
2022-11-24T01:23:40.396Z,97867.78
2022-11-24T01:26:09.224Z,97868.13
2022-11-24T01:28:40.620Z,97873.81
2022-11-24T01:31:12.145Z,97863.06
2022-11-24T01:33:40.649Z,97872.56
2022-11-24T01:36:08.937Z,97881.94
2022-11-24T01:38:38.430Z,97883.56
2022-11-24T01:41:09.459Z,97886.25
2022-11-24T01:43:38.012Z,97886.41
2022-11-24T01:46:14.066Z,97880.22
2022-11-24T01:48:46.708Z,97884.84
2022-11-24T01:51:18.566Z,97880.53
2022-11-24T01:53:58.639Z,97885.75
2022-11-24T01:56:27.919Z,97880.63
2022-11-24T01:58:59.313Z,97885.38
2022-11-24T02:01:29.321Z,97880.91
2022-11-24T02:03:58.075Z,97895.25
2022-11-24T02:06:28.791Z,97893.81
2022-11-24T02:09:01.230Z,97889.69
2022-11-24T02:11:34.517Z,97880.53
2022-11-24T02:14:02.890Z,97889.69
2022-11-24T02:16:31.519Z,97883.53
2022-11-24T02:18:59.622Z,97889.88
2022-11-24T02:21:27.760Z,97888.66
2022-11-24T02:24:04.743Z,97896.25
2022-11-24T02:26:41.483Z,97903.53
2022-11-24T02:29:10.336Z,97897.81
2022-11-24T02:31:38.736Z,97905.56
2022-11-24T02:34:06.772Z,97904.44
2022-11-24T02:36:34.779Z,97903.31
2022-11-24T02:39:02.911Z,97897.50
2022-11-24T02:41:31.093Z,97907.31
2022-11-24T02:44:03.124Z,97900.56
2022-11-24T02:46:31.295Z,97899.78
2022-11-24T02:48:59.426Z,97905.94
2022-11-24T02:51:28.180Z,97906.72
2022-11-24T02:53:56.167Z,97897.69
2022-11-24T02:56:24.248Z,97910.78
2022-11-24T02:58:52.274Z,97912.38
2022-11-24T03:01:21.756Z,97919.34
2022-11-24T03:03:50.010Z,97916.97
2022-11-24T03:06:18.012Z,97917.16
2022-11-24T03:08:45.972Z,97919.38
2022-11-24T03:11:14.126Z,97922.25
2022-11-24T03:13:42.273Z,97916.75
2022-11-24T03:16:11.560Z,97923.09
2022-11-24T03:18:41.056Z,97920.25
2022-11-24T03:21:09.222Z,97917.09
2022-11-24T03:23:37.294Z,97919.53
2022-11-24T03:26:09.930Z,97924.28
2022-11-24T03:28:38.191Z,97928.09
2022-11-24T03:31:06.985Z,97924.59
2022-11-24T03:33:35.086Z,97932.22
2022-11-24T03:36:04.549Z,97931.41
2022-11-24T03:38:32.555Z,97936.78
2022-11-24T03:41:00.661Z,97937.13
2022-11-24T03:43:28.720Z,97931.41
2022-11-24T03:45:56.961Z,97942.78
2022-11-24T03:48:25.187Z,97929.69
2022-11-24T03:50:57.471Z,97940.75
2022-11-24T03:53:28.410Z,97935.72
2022-11-24T03:55:57.030Z,97930.19
2022-11-24T03:58:25.734Z,97935.41
2022-11-24T04:00:55.014Z,97946.19
2022-11-24T04:03:23.550Z,97932.47
2022-11-24T04:05:51.911Z,97941.78
2022-11-24T04:08:20.177Z,97946.88
2022-11-24T04:10:52.909Z,97946.56
2022-11-24T04:13:22.622Z,97958.88
2022-11-24T04:15:50.804Z,97961.44
2022-11-24T04:18:19.275Z,97969.47
2022-11-24T04:20:49.934Z,97966.78
2022-11-24T04:23:18.473Z,97967.44
2022-11-24T04:25:46.483Z,97979.13
2022-11-24T04:28:15.894Z,97981.81
2022-11-24T04:30:45.142Z,97989.22
2022-11-24T04:33:13.950Z,97981.19
2022-11-24T04:35:41.995Z,97994.13
2022-11-24T04:38:10.079Z,97989.69
2022-11-24T04:40:38.635Z,97986.38
2022-11-24T04:43:06.672Z,97990.78
2022-11-24T04:45:36.237Z,97993.31
2022-11-24T04:48:04.422Z,97998.19
2022-11-24T04:50:32.831Z,98004.81
2022-11-24T04:53:00.811Z,98005.28
2022-11-24T04:55:28.970Z,98008.78
2022-11-24T04:57:57.009Z,98009.56
2022-11-24T05:00:25.111Z,98017.59
2022-11-24T05:02:54.507Z,98020.28
2022-11-24T05:05:22.663Z,98025.16
2022-11-24T05:07:50.722Z,98028.47
2022-11-24T05:10:37.371Z,98030.03
2022-11-24T05:13:06.735Z,98040.94
2022-11-24T05:15:35.262Z,98033.03
2022-11-24T05:18:07.700Z,98032.81
2022-11-24T05:20:36.181Z,98041.19
2022-11-24T05:23:05.053Z,98046.84
2022-11-24T05:25:33.385Z,98056.16
2022-11-24T05:28:02.501Z,98053.59
2022-11-24T05:30:30.911Z,98056.59
2022-11-24T05:32:59.092Z,98058.00
2022-11-24T05:35:28.553Z,98066.34
2022-11-24T05:37:56.613Z,98072.53
2022-11-24T05:40:25.631Z,98075.78
2022-11-24T05:42:53.611Z,98079.09
2022-11-24T05:45:23.090Z,98082.38
2022-11-24T05:47:51.627Z,98083.00
2022-11-24T05:50:21.735Z,98084.72
2022-11-24T05:52:51.524Z,98096.69
2022-11-24T05:55:20.694Z,98095.06
2022-11-24T05:57:48.837Z,98100.44
2022-11-24T06:00:20.304Z,98105.91
2022-11-24T06:02:49.109Z,98117.75
2022-11-24T06:05:17.801Z,98114.44
2022-11-24T06:07:45.967Z,98112.09
2022-11-24T06:10:16.193Z,98118.81
2022-11-24T06:12:44.423Z,98135.78
2022-11-24T06:15:12.711Z,98134.22
2022-11-24T06:17:41.484Z,98131.66
2022-11-24T06:20:11.117Z,98134.47
2022-11-24T06:22:39.241Z,98136.97
2022-11-24T06:25:07.837Z,98138.03
2022-11-24T06:27:37.356Z,98135.34
2022-11-24T06:30:06.160Z,98151.44
2022-11-24T06:32:34.278Z,98156.91
2022-11-24T06:35:02.434Z,98149.97
2022-11-24T06:37:30.413Z,98147.78
2022-11-24T06:39:58.508Z,98160.06
2022-11-24T06:42:26.568Z,98165.25
2022-11-24T06:44:56.065Z,98163.69
2022-11-24T06:47:24.064Z,98166.47
2022-11-24T06:49:52.189Z,98169.63
2022-11-24T06:52:20.142Z,98171.63
2022-11-24T06:54:48.129Z,98177.00
2022-11-24T06:57:16.122Z,98177.59
2022-11-24T06:59:44.225Z,98178.06
2022-11-24T07:02:13.607Z,98180.75
2022-11-24T07:04:41.540Z,98186.91
2022-11-24T07:07:09.728Z,98191.88
2022-11-24T07:09:37.954Z,98189.47
2022-11-24T07:12:07.052Z,98199.22
2022-11-24T07:14:35.298Z,98205.06
2022-11-24T07:17:04.812Z,98199.72
2022-11-24T07:19:34.447Z,98207.34
2022-11-24T07:22:02.762Z,98203.59
2022-11-24T07:24:30.883Z,98206.97
2022-11-24T07:26:58.916Z,98201.41
2022-11-24T07:29:26.968Z,98205.00
2022-11-24T07:31:55.002Z,98204.81
2022-11-24T07:34:23.045Z,98212.34
2022-11-24T07:36:52.551Z,98212.16
2022-11-24T07:39:20.601Z,98217.78
2022-11-24T07:41:48.647Z,98213.03
2022-11-24T07:44:16.680Z,98214.94
2022-11-24T07:46:44.690Z,98215.22
2022-11-24T07:49:12.639Z,98217.59
2022-11-24T07:51:40.715Z,98221.34
2022-11-24T07:54:10.160Z,98225.91
2022-11-24T07:56:38.216Z,98225.22
2022-11-24T07:59:06.356Z,98228.69
2022-11-24T08:01:34.480Z,98230.28
2022-11-24T08:04:03.185Z,98235.63
2022-11-24T08:06:38.447Z,98235.13
2022-11-24T08:09:10.118Z,98237.91
2022-11-24T08:11:38.205Z,98238.91
2022-11-24T08:14:06.326Z,98246.34
2022-11-24T08:16:34.367Z,98245.25
2022-11-24T08:19:02.437Z,98242.28
2022-11-24T08:21:30.526Z,98244.03
2022-11-24T08:23:58.931Z,98256.53
2022-11-24T08:26:28.328Z,98261.59
2022-11-24T08:28:58.071Z,98250.41
2022-11-24T08:31:32.919Z,98255.16
2022-11-24T08:34:01.781Z,98250.50
2022-11-24T08:36:30.164Z,98256.53
2022-11-24T08:39:00.425Z,98263.06
2022-11-24T08:41:30.855Z,98259.50
2022-11-24T08:43:59.567Z,98251.25
2022-11-24T08:46:27.715Z,98259.47
2022-11-24T08:48:56.355Z,98252.63
2022-11-24T08:51:27.028Z,98256.16
2022-11-24T08:53:56.926Z,98253.66
2022-11-24T08:56:25.390Z,98254.88
2022-11-24T08:58:54.972Z,98252.38
2022-11-24T09:01:23.469Z,98257.44
2022-11-24T09:03:52.361Z,98253.56
2022-11-24T09:06:23.189Z,98265.00
2022-11-24T09:08:51.311Z,98254.28
2022-11-24T09:11:19.944Z,98255.97
2022-11-24T09:13:48.174Z,98257.19
2022-11-24T09:16:19.658Z,98260.38
2022-11-24T09:18:48.662Z,98268.28
2022-11-24T09:21:18.428Z,98263.13
2022-11-24T09:23:47.426Z,98271.03
2022-11-24T09:26:17.568Z,98269.03
2022-11-24T09:28:46.271Z,98273.78
2022-11-24T09:31:18.372Z,98271.00
2022-11-24T09:33:47.134Z,98260.25
2022-11-24T09:36:16.262Z,98258.66
2022-11-24T09:38:44.246Z,98262.22
2022-11-24T09:41:50.520Z,98261.09
2022-11-24T09:44:39.780Z,98274.75
2022-11-24T09:47:20.092Z,98263.41
2022-11-24T09:49:54.292Z,98268.97
2022-11-24T09:52:28.209Z,98279.13
2022-11-24T09:55:00.723Z,98268.44
2022-11-24T09:57:37.495Z,98262.31
2022-11-24T10:00:14.201Z,98264.41
2022-11-24T10:02:44.964Z,98258.44
2022-11-24T10:05:14.207Z,98251.31
2022-11-24T10:07:48.020Z,98255.28
2022-11-24T10:10:24.480Z,98255.63
2022-11-24T10:13:06.300Z,98255.81
2022-11-24T10:15:43.533Z,98258.34
2022-11-24T10:18:31.512Z,98261.69
2022-11-24T10:21:10.855Z,98274.31
2022-11-24T10:23:52.702Z,98261.84
2022-11-24T10:26:27.644Z,98260.91
2022-11-24T10:28:57.000Z,98256.50
2022-11-24T10:31:31.147Z,98255.06
2022-11-24T10:34:10.981Z,98252.38
2022-11-24T10:36:47.891Z,98252.22
2022-11-24T10:39:22.155Z,98251.91
2022-11-24T10:41:58.875Z,98254.16
2022-11-24T10:44:26.993Z,98253.38
2022-11-24T10:46:55.131Z,98250.38
2022-11-24T10:49:28.858Z,98254.16
2022-11-24T10:52:09.523Z,98253.84
2022-11-24T10:54:37.583Z,98259.69
2022-11-24T10:57:05.768Z,98260.97
2022-11-24T10:59:37.542Z,98255.59
2022-11-24T11:02:30.560Z,98264.00
2022-11-24T11:05:00.594Z,98255.13
2022-11-24T11:07:28.696Z,98248.31
2022-11-24T11:10:19.761Z,98259.72
2022-11-24T11:12:47.936Z,98252.28
2022-11-24T11:15:24.358Z,98257.19
2022-11-24T11:17:57.393Z,98256.09
2022-11-24T11:20:30.792Z,98264.16
2022-11-24T11:23:01.942Z,98253.88
2022-11-24T11:25:34.102Z,98252.13
2022-11-24T11:28:31.967Z,98261.13
2022-11-24T11:31:20.507Z,98260.34
2022-11-24T11:34:09.466Z,98261.13
2022-11-24T11:36:46.280Z,98271.09
2022-11-24T11:39:24.248Z,98267.47
2022-11-24T11:41:55.972Z,98266.03
2022-11-24T11:44:35.388Z,98262.38
2022-11-24T11:47:18.673Z,98256.84
2022-11-24T11:49:48.925Z,98260.78
2022-11-24T11:52:37.917Z,98263.91
2022-11-24T11:55:38.449Z,98261.88
2022-11-24T11:58:29.459Z,98267.69
2022-11-24T12:01:05.616Z,98269.56
2022-11-24T12:03:45.378Z,98272.06
2022-11-24T12:06:28.591Z,98275.06
2022-11-24T12:09:24.478Z,98277.41
2022-11-24T12:12:09.928Z,98266.97
2022-11-24T12:14:44.407Z,98279.41
2022-11-24T12:17:25.722Z,98276.56
2022-11-24T12:20:08.479Z,98280.34
2022-11-24T12:22:44.954Z,98277.97
2022-11-24T12:25:27.383Z,98289.19
2022-11-24T12:28:17.645Z,98287.47
2022-11-24T12:31:00.308Z,98288.88
2022-11-24T12:33:55.338Z,98299.47
2022-11-24T12:36:42.463Z,98300.88
2022-11-24T12:39:25.182Z,98299.44
2022-11-24T12:42:05.910Z,98307.66
2022-11-24T12:44:57.256Z,98308.94
2022-11-24T12:47:37.392Z,98309.44
2022-11-24T12:50:12.728Z,98303.56
2022-11-24T12:52:45.546Z,98314.00
2022-11-24T12:55:19.479Z,98306.88
2022-11-24T12:57:56.869Z,98302.13
2022-11-24T13:00:31.941Z,98312.72
2022-11-24T13:03:06.654Z,98308.94
2022-11-24T13:05:45.165Z,98304.34
2022-11-24T13:08:15.395Z,98306.56
2022-11-24T13:10:55.836Z,98303.22
2022-11-24T13:13:31.466Z,98314.75
2022-11-24T13:18:59.980Z,98315.91
2022-11-24T13:22:06.461Z,98325.03
2022-11-24T13:24:37.248Z,98309.13
2022-11-24T13:27:41.770Z,98319.22
2022-11-24T13:30:52.400Z,98321.69
2022-11-24T13:33:34.676Z,98321.34
2022-11-24T13:36:30.809Z,98323.38
2022-11-24T13:38:59.963Z,98330.66
2022-11-24T13:42:07.526Z,98338.03
2022-11-24T13:44:54.588Z,98333.56
2022-11-24T13:47:49.536Z,98340.94
2022-11-24T13:50:52.206Z,98338.16
2022-11-24T13:53:29.779Z,98340.34
2022-11-24T13:56:00.441Z,98347.59
2022-11-24T13:58:33.112Z,98347.09
2022-11-24T14:01:14.543Z,98344.75
2022-11-24T14:04:14.003Z,98348.03
2022-11-24T14:06:41.632Z,98349.72
2022-11-24T14:09:22.812Z,98357.09
2022-11-24T14:12:00.310Z,98357.88
2022-11-24T14:14:28.448Z,98361.50
2022-11-24T14:17:17.396Z,98360.81
2022-11-24T14:19:47.481Z,98366.66
2022-11-24T14:22:21.012Z,98360.31
2022-11-24T14:24:54.173Z,98361.13
2022-11-24T14:27:29.041Z,98371.84
2022-11-24T14:29:58.797Z,98358.75
2022-11-24T14:32:27.222Z,98364.91
2022-11-24T14:34:55.695Z,98373.25
2022-11-24T14:37:25.315Z,98376.69
2022-11-24T14:39:53.494Z,98376.25
2022-11-24T14:42:24.316Z,98378.59
2022-11-24T14:44:55.700Z,98378.59
2022-11-24T14:47:31.744Z,98377.81
2022-11-24T14:50:10.202Z,98380.19
2022-11-24T14:52:46.205Z,98372.44
2022-11-24T14:55:28.843Z,98382.38
2022-11-24T14:57:56.963Z,98380.00
2022-11-24T15:00:31.052Z,98384.88
2022-11-24T15:03:17.138Z,98385.19
2022-11-24T15:05:54.096Z,98382.69
2022-11-24T15:08:25.348Z,98393.91
2022-11-24T15:11:00.132Z,98393.63
2022-11-24T15:13:28.821Z,98388.44
2022-11-24T15:16:02.733Z,98401.53
2022-11-24T15:18:38.669Z,98399.94
2022-11-24T15:21:06.895Z,98402.63
2022-11-24T15:23:37.578Z,98408.00
2022-11-24T15:26:31.276Z,98406.88
2022-11-24T15:29:00.162Z,98411.34
2022-11-24T15:31:28.219Z,98417.22
2022-11-24T15:33:56.324Z,98417.69
2022-11-24T15:36:24.442Z,98417.09
2022-11-24T15:38:53.830Z,98426.41
2022-11-24T15:41:23.914Z,98426.41
2022-11-24T15:43:58.816Z,98430.97
2022-11-24T15:46:27.987Z,98431.47
2022-11-24T15:48:56.841Z,98432.78
2022-11-24T15:51:27.100Z,98435.94
2022-11-24T15:54:00.951Z,98438.13
2022-11-24T15:56:33.488Z,98441.09
2022-11-24T15:59:01.709Z,98438.44
2022-11-24T16:01:32.417Z,98441.59
2022-11-24T16:04:00.597Z,98444.28
2022-11-24T16:06:28.631Z,98446.78
2022-11-24T16:08:59.173Z,98441.72
2022-11-24T16:11:27.483Z,98442.50
2022-11-24T16:13:55.733Z,98444.72
2022-11-24T16:16:25.942Z,98446.13
2022-11-24T16:18:54.147Z,98449.09
2022-11-24T16:21:22.109Z,98442.13
2022-11-24T16:23:50.175Z,98447.00
2022-11-24T16:26:19.607Z,98443.63
2022-11-24T16:28:47.722Z,98453.06
2022-11-24T16:31:16.501Z,98442.84
2022-11-24T16:33:46.354Z,98449.94
2022-11-24T16:36:14.784Z,98454.47
2022-11-24T16:38:42.868Z,98453.06
2022-11-24T16:41:11.447Z,98465.09
2022-11-24T16:43:41.030Z,98465.09
2022-11-24T16:46:21.446Z,98467.00
2022-11-24T16:48:54.503Z,98470.66
2022-11-24T16:51:24.434Z,98465.00
2022-11-24T16:53:58.618Z,98468.19
2022-11-24T16:56:26.967Z,98472.16
2022-11-24T16:58:56.576Z,98475.91
2022-11-24T17:01:25.909Z,98473.44
2022-11-24T17:03:54.262Z,98477.38
2022-11-24T17:06:22.427Z,98483.25
2022-11-24T17:08:50.496Z,98482.16
2022-11-24T17:11:20.286Z,98480.06
2022-11-24T17:13:49.219Z,98482.28
2022-11-24T17:16:20.991Z,98482.88
2022-11-24T17:18:49.849Z,98490.59
2022-11-24T17:21:19.294Z,98493.00
2022-11-24T17:23:47.873Z,98493.00
2022-11-24T17:26:17.913Z,98490.31
2022-11-24T17:28:46.268Z,98490.78
2022-11-24T17:31:21.599Z,98493.78
2022-11-24T17:33:50.298Z,98492.41
2022-11-24T17:36:18.507Z,98489.22
2022-11-24T17:38:46.600Z,98502.72
2022-11-24T17:41:15.297Z,98506.50
2022-11-24T17:43:43.299Z,98502.53
2022-11-24T17:46:11.724Z,98505.72
2022-11-24T17:48:41.494Z,98496.56
2022-11-24T17:51:12.896Z,98504.13
2022-11-24T17:53:41.982Z,98501.16
2022-11-24T17:56:13.476Z,98496.28
2022-11-24T17:58:43.230Z,98501.94
2022-11-24T18:01:12.273Z,98502.13
2022-11-24T18:03:42.066Z,98503.50
2022-11-24T18:06:11.853Z,98500.84
2022-11-24T18:08:41.819Z,98509.97
2022-11-24T18:11:11.195Z,98508.09
2022-11-24T18:16:30.082Z,98506.50
2022-11-24T18:19:10.094Z,98503.84
2022-11-24T18:21:40.054Z,98498.47
2022-11-24T18:24:09.000Z,98502.25
2022-11-24T18:26:37.102Z,98496.06
2022-11-24T18:29:05.789Z,98504.72
2022-11-24T18:31:35.627Z,98511.47
2022-11-24T18:34:06.316Z,98508.31
2022-11-24T18:36:35.185Z,98511.28
2022-11-24T18:39:04.076Z,98520.22
2022-11-24T18:41:32.470Z,98514.66
2022-11-24T18:44:02.425Z,98523.03
2022-11-24T18:46:30.659Z,98526.50
2022-11-24T18:48:58.746Z,98529.78
2022-11-24T18:51:28.494Z,98531.44
2022-11-24T18:53:58.153Z,98532.56
2022-11-24T18:56:27.156Z,98534.13
2022-11-24T18:58:56.262Z,98540.31
2022-11-24T19:01:26.477Z,98533.84
2022-11-24T19:03:56.458Z,98537.13
2022-11-24T19:06:28.594Z,98551.41
2022-11-24T19:08:58.096Z,98544.47
2022-11-24T19:11:28.261Z,98550.63
2022-11-24T19:13:57.625Z,98552.19
2022-11-24T19:16:26.195Z,98556.78
2022-11-24T19:18:57.285Z,98555.41
2022-11-24T19:21:25.376Z,98553.81
2022-11-24T19:23:53.798Z,98555.41
2022-11-24T19:26:23.388Z,98559.38
2022-11-24T19:28:51.624Z,98558.56
2022-11-24T19:31:20.615Z,98571.47
2022-11-24T19:33:48.989Z,98567.13
2022-11-24T19:36:18.532Z,98572.78
2022-11-24T19:38:51.159Z,98568.78
2022-11-24T19:41:20.953Z,98573.06
2022-11-24T19:43:53.133Z,98576.06
2022-11-24T19:46:22.306Z,98579.00
2022-11-24T19:48:54.148Z,98583.38
2022-11-24T19:51:23.930Z,98580.41
2022-11-24T19:53:52.223Z,98585.88
2022-11-24T19:56:21.577Z,98582.38
2022-11-24T19:58:52.048Z,98579.22
2022-11-24T20:01:21.928Z,98582.97
2022-11-24T20:03:55.917Z,98584.88
2022-11-24T20:06:23.947Z,98581.41
2022-11-24T20:08:52.024Z,98586.75
2022-11-24T20:11:22.537Z,98585.97
2022-11-24T20:13:51.913Z,98587.94
2022-11-24T20:16:26.271Z,98589.53
2022-11-24T20:18:56.260Z,98596.97
2022-11-24T20:21:28.610Z,98597.47
2022-11-24T20:23:59.989Z,98610.09
2022-11-24T20:26:30.596Z,98607.41
2022-11-24T20:29:01.273Z,98602.63
2022-11-24T20:31:31.466Z,98600.75
2022-11-24T20:34:01.089Z,98602.31
2022-11-24T20:36:30.900Z,98591.91
2022-11-24T20:39:00.869Z,98604.81
2022-11-24T20:41:30.768Z,98603.22
2022-11-24T20:44:03.933Z,98602.72
2022-11-24T20:46:34.162Z,98613.44
2022-11-24T20:49:03.496Z,98626.06
2022-11-24T20:51:33.855Z,98624.94
2022-11-24T20:54:03.469Z,98621.75
2022-11-24T20:56:33.975Z,98622.88
2022-11-24T20:59:04.653Z,98627.72
2022-11-24T21:01:35.277Z,98631.22
2022-11-24T21:04:03.999Z,98627.44
2022-11-24T21:06:32.329Z,98627.22
2022-11-24T21:09:03.952Z,98629.59
2022-11-24T21:11:32.906Z,98634.69
2022-11-24T21:14:02.224Z,98635.28
2022-11-24T21:16:33.321Z,98644.38
2022-11-24T21:19:03.033Z,98641.13
2022-11-24T21:21:34.221Z,98638.44
2022-11-24T21:24:02.624Z,98647.97
2022-11-24T21:26:31.354Z,98656.31
2022-11-24T21:28:59.423Z,98656.31
2022-11-24T21:31:27.545Z,98659.78
2022-11-24T21:33:57.173Z,98657.19
2022-11-24T21:36:27.535Z,98658.50
2022-11-24T21:38:57.347Z,98666.53
2022-11-24T21:41:27.304Z,98670.59
2022-11-24T21:43:56.565Z,98674.38
2022-11-24T21:46:25.068Z,98673.84
2022-11-24T21:48:53.200Z,98666.13
2022-11-24T21:51:22.890Z,98670.97
2022-11-24T21:53:50.917Z,98682.47
2022-11-24T21:56:20.919Z,98684.13
2022-11-24T21:58:50.550Z,98686.03
2022-11-24T22:01:21.050Z,98689.78
2022-11-24T22:03:49.124Z,98690.28
2022-11-24T22:06:17.835Z,98692.19
2022-11-24T22:08:48.216Z,98686.31
2022-11-24T22:11:18.437Z,98697.03
2022-11-24T22:13:46.887Z,98695.72
2022-11-24T22:16:17.057Z,98697.59
2022-11-24T22:18:46.228Z,98695.44
2022-11-24T22:21:16.273Z,98697.81
2022-11-24T22:23:44.507Z,98704.50
2022-11-24T22:26:18.561Z,98711.72
2022-11-24T22:28:47.272Z,98705.03
2022-11-24T22:31:17.352Z,98707.38
2022-11-24T22:33:45.508Z,98709.78
2022-11-24T22:36:14.769Z,98702.84
2022-11-24T22:38:43.392Z,98708.22
2022-11-24T22:41:15.397Z,98707.19
2022-11-24T22:43:44.829Z,98711.97
2022-11-24T22:46:14.794Z,98713.06
2022-11-24T22:48:43.464Z,98720.31
2022-11-24T22:51:12.847Z,98720.31
2022-11-24T22:53:41.857Z,98716.28
2022-11-24T22:56:12.180Z,98722.44
2022-11-24T22:58:42.228Z,98727.81
2022-11-24T23:01:12.451Z,98723.03
2022-11-24T23:03:41.627Z,98731.66
2022-11-24T23:06:12.666Z,98729.53
2022-11-24T23:08:41.037Z,98728.72
2022-11-24T23:11:11.321Z,98736.84
2022-11-24T23:13:39.524Z,98740.59
2022-11-24T23:16:11.641Z,98730.47
2022-11-24T23:18:40.406Z,98737.44
2022-11-24T23:21:09.830Z,98743.88
2022-11-24T23:23:37.941Z,98746.53
2022-11-24T23:26:07.898Z,98740.41
2022-11-24T23:28:36.021Z,98743.06
2022-11-24T23:31:05.045Z,98748.44
2022-11-24T23:33:34.699Z,98740.41
2022-11-24T23:36:03.426Z,98751.31
2022-11-24T23:38:33.425Z,98756.97
2022-11-24T23:41:04.517Z,98761.53
2022-11-24T23:43:32.863Z,98766.09
2022-11-24T23:46:04.640Z,98763.41
2022-11-24T23:48:34.681Z,98769.59
2022-11-24T23:51:06.551Z,98764.78
2022-11-24T23:53:35.414Z,98767.75
2022-11-24T23:56:04.309Z,98762.91
2022-11-24T23:58:32.920Z,98766.97
